sensor_id;sensor_type;location;lat;lon;timestamp;pressure;altitude;pressure_sealevel;temperature;humidity
6506;BME280;3286;49.858;8.768;2023-03-01T00:01:52;100290.75;;;0.54;49.24
6506;BME280;3286;49.858;8.768;2023-03-01T00:04:18;100285.38;;;1.24;47.29
6506;BME280;3286;49.858;8.768;2023-03-01T00:06:45;100286.72;;;1.12;47.68
6506;BME280;3286;49.858;8.768;2023-03-01T00:09:12;100295.25;;;1.15;47.59
6506;BME280;3286;49.858;8.768;2023-03-01T00:11:40;100293.13;;;1.25;47.30
6506;BME280;3286;49.858;8.768;2023-03-01T00:14:07;100296.41;;;1.08;47.81
6506;BME280;3286;49.858;8.768;2023-03-01T00:16:36;100301.75;;;1.05;47.89
6506;BME280;3286;49.858;8.768;2023-03-01T00:19:04;100295.75;;;1.03;48.55
6506;BME280;3286;49.858;8.768;2023-03-01T00:21:31;100293.75;;;1.10;47.84
6506;BME280;3286;49.858;8.768;2023-03-01T00:23:59;100304.47;;;0.80;49.15
6506;BME280;3286;49.858;8.768;2023-03-01T00:26:27;100296.56;;;0.83;48.87
6506;BME280;3286;49.858;8.768;2023-03-01T00:28:56;100291.88;;;1.13;48.39
6506;BME280;3286;49.858;8.768;2023-03-01T00:31:24;100300.16;;;1.01;48.33
6506;BME280;3286;49.858;8.768;2023-03-01T00:33:52;100292.81;;;0.90;48.69
6506;BME280;3286;49.858;8.768;2023-03-01T00:36:23;100283.22;;;0.68;48.76
6506;BME280;3286;49.858;8.768;2023-03-01T00:38:50;100276.03;;;0.75;49.13
6506;BME280;3286;49.858;8.768;2023-03-01T00:41:18;100272.72;;;0.71;49.13
6506;BME280;3286;49.858;8.768;2023-03-01T00:43:45;100274.34;;;0.96;48.55
6506;BME280;3286;49.858;8.768;2023-03-01T00:46:15;100271.66;;;0.98;48.49
6506;BME280;3286;49.858;8.768;2023-03-01T00:48:43;100266.69;;;0.71;48.81
6506;BME280;3286;49.858;8.768;2023-03-01T00:51:12;100268.78;;;0.83;48.68
6506;BME280;3286;49.858;8.768;2023-03-01T00:53:39;100270.72;;;0.56;49.53
6506;BME280;3286;49.858;8.768;2023-03-01T00:56:07;100261.22;;;0.77;48.96
6506;BME280;3286;49.858;8.768;2023-03-01T00:58:35;100257.75;;;0.54;49.42
6506;BME280;3286;49.858;8.768;2023-03-01T01:01:07;100254.13;;;1.03;48.35
6506;BME280;3286;49.858;8.768;2023-03-01T01:03:44;100255.72;;;0.85;48.46
6506;BME280;3286;49.858;8.768;2023-03-01T01:06:15;100249.66;;;0.84;48.12
6506;BME280;3286;49.858;8.768;2023-03-01T01:08:42;100244.47;;;0.84;48.83
6506;BME280;3286;49.858;8.768;2023-03-01T01:11:09;100242.28;;;0.74;48.88
6506;BME280;3286;49.858;8.768;2023-03-01T01:13:36;100234.41;;;0.97;48.37
6506;BME280;3286;49.858;8.768;2023-03-01T01:16:04;100226.25;;;0.84;48.47
6506;BME280;3286;49.858;8.768;2023-03-01T01:18:30;100221.13;;;1.04;48.45
6506;BME280;3286;49.858;8.768;2023-03-01T01:21:03;100216.88;;;0.80;48.85
6506;BME280;3286;49.858;8.768;2023-03-01T01:23:30;100210.72;;;1.04;48.32
6506;BME280;3286;49.858;8.768;2023-03-01T01:25:56;100209.91;;;0.81;49.59
6506;BME280;3286;49.858;8.768;2023-03-01T01:28:23;100215.59;;;1.11;49.06
6506;BME280;3286;49.858;8.768;2023-03-01T01:30:50;100216.78;;;1.04;49.09
6506;BME280;3286;49.858;8.768;2023-03-01T01:33:16;100212.94;;;0.92;49.13
6506;BME280;3286;49.858;8.768;2023-03-01T01:35:45;100204.56;;;1.06;48.40
6506;BME280;3286;49.858;8.768;2023-03-01T01:38:13;100209.44;;;0.71;49.24
6506;BME280;3286;49.858;8.768;2023-03-01T01:40:43;100208.44;;;0.31;50.33
6506;BME280;3286;49.858;8.768;2023-03-01T01:43:17;100206.09;;;0.90;49.49
6506;BME280;3286;49.858;8.768;2023-03-01T01:45:45;100201.66;;;0.71;49.38
6506;BME280;3286;49.858;8.768;2023-03-01T01:48:15;100201.22;;;0.60;49.67
6506;BME280;3286;49.858;8.768;2023-03-01T01:50:43;100195.84;;;0.64;50.10
6506;BME280;3286;49.858;8.768;2023-03-01T01:53:15;100192.50;;;0.61;50.08
6506;BME280;3286;49.858;8.768;2023-03-01T01:55:45;100184.63;;;0.64;49.53
6506;BME280;3286;49.858;8.768;2023-03-01T01:58:17;100193.72;;;0.74;49.92
6506;BME280;3286;49.858;8.768;2023-03-01T02:00:44;100189.63;;;1.10;49.79
6506;BME280;3286;49.858;8.768;2023-03-01T02:03:12;100186.44;;;0.82;50.50
6506;BME280;3286;49.858;8.768;2023-03-01T02:05:46;100191.94;;;0.75;50.32
6506;BME280;3286;49.858;8.768;2023-03-01T02:08:17;100188.47;;;0.96;49.75
6506;BME280;3286;49.858;8.768;2023-03-01T02:10:46;100202.47;;;1.14;48.58
6506;BME280;3286;49.858;8.768;2023-03-01T02:13:14;100202.91;;;0.38;50.48
6506;BME280;3286;49.858;8.768;2023-03-01T02:15:41;100200.97;;;1.09;48.97
6506;BME280;3286;49.858;8.768;2023-03-01T02:18:10;100205.47;;;1.05;48.62
6506;BME280;3286;49.858;8.768;2023-03-01T02:20:44;100196.13;;;0.79;49.09
6506;BME280;3286;49.858;8.768;2023-03-01T02:23:16;100196.00;;;1.03;49.22
6506;BME280;3286;49.858;8.768;2023-03-01T02:25:49;100192.63;;;1.00;48.94
6506;BME280;3286;49.858;8.768;2023-03-01T02:28:24;100190.56;;;0.88;49.78
6506;BME280;3286;49.858;8.768;2023-03-01T02:30:51;100190.09;;;0.78;49.76
6506;BME280;3286;49.858;8.768;2023-03-01T02:33:37;100180.94;;;0.90;49.88
6506;BME280;3286;49.858;8.768;2023-03-01T02:36:08;100179.81;;;0.96;49.20
6506;BME280;3286;49.858;8.768;2023-03-01T02:38:36;100179.50;;;0.61;50.21
6506;BME280;3286;49.858;8.768;2023-03-01T02:41:04;100176.09;;;1.01;49.67
6506;BME280;3286;49.858;8.768;2023-03-01T02:43:34;100178.91;;;0.97;49.78
6506;BME280;3286;49.858;8.768;2023-03-01T02:46:03;100177.84;;;1.01;49.39
6506;BME280;3286;49.858;8.768;2023-03-01T02:48:40;100169.34;;;0.97;49.88
6506;BME280;3286;49.858;8.768;2023-03-01T02:51:13;100162.78;;;0.89;50.30
6506;BME280;3286;49.858;8.768;2023-03-01T02:53:50;100157.56;;;0.89;49.76
6506;BME280;3286;49.858;8.768;2023-03-01T02:56:19;100161.28;;;1.04;49.56
6506;BME280;3286;49.858;8.768;2023-03-01T02:58:48;100157.84;;;1.03;49.80
6506;BME280;3286;49.858;8.768;2023-03-01T03:01:17;100158.66;;;0.62;50.52
6506;BME280;3286;49.858;8.768;2023-03-01T03:03:44;100147.59;;;0.78;50.38
6506;BME280;3286;49.858;8.768;2023-03-01T03:06:11;100148.59;;;0.75;49.78
6506;BME280;3286;49.858;8.768;2023-03-01T03:08:37;100138.72;;;0.83;49.73
6506;BME280;3286;49.858;8.768;2023-03-01T03:11:04;100130.53;;;0.72;50.47
6506;BME280;3286;49.858;8.768;2023-03-01T03:13:31;100130.69;;;0.67;50.34
6506;BME280;3286;49.858;8.768;2023-03-01T03:15:59;100125.84;;;0.80;50.25
6506;BME280;3286;49.858;8.768;2023-03-01T03:18:25;100129.09;;;0.65;50.90
6506;BME280;3286;49.858;8.768;2023-03-01T03:20:53;100129.41;;;0.78;50.34
6506;BME280;3286;49.858;8.768;2023-03-01T03:23:21;100121.09;;;0.90;49.91
6506;BME280;3286;49.858;8.768;2023-03-01T03:25:48;100120.38;;;0.86;51.03
6506;BME280;3286;49.858;8.768;2023-03-01T03:28:15;100122.19;;;0.64;51.17
6506;BME280;3286;49.858;8.768;2023-03-01T03:30:43;100118.06;;;0.79;50.20
6506;BME280;3286;49.858;8.768;2023-03-01T03:33:11;100116.19;;;0.82;50.07
6506;BME280;3286;49.858;8.768;2023-03-01T03:35:41;100117.75;;;0.86;50.17
6506;BME280;3286;49.858;8.768;2023-03-01T03:38:10;100115.56;;;0.34;51.39
6506;BME280;3286;49.858;8.768;2023-03-01T03:40:42;100111.19;;;0.57;50.94
6506;BME280;3286;49.858;8.768;2023-03-01T03:43:10;100109.97;;;0.66;50.95
6506;BME280;3286;49.858;8.768;2023-03-01T03:45:38;100108.16;;;0.68;51.13
6506;BME280;3286;49.858;8.768;2023-03-01T03:48:06;100097.72;;;0.89;50.72
6506;BME280;3286;49.858;8.768;2023-03-01T03:50:36;100104.88;;;0.83;51.35
6506;BME280;3286;49.858;8.768;2023-03-01T03:53:04;100094.91;;;0.31;53.07
6506;BME280;3286;49.858;8.768;2023-03-01T03:55:32;100104.19;;;0.59;51.56
6506;BME280;3286;49.858;8.768;2023-03-01T03:58:00;100101.97;;;0.50;51.22
6506;BME280;3286;49.858;8.768;2023-03-01T04:00:32;100103.97;;;0.84;50.04
6506;BME280;3286;49.858;8.768;2023-03-01T04:02:59;100099.59;;;1.06;49.93
6506;BME280;3286;49.858;8.768;2023-03-01T04:05:27;100101.00;;;1.13;49.46
6506;BME280;3286;49.858;8.768;2023-03-01T04:07:55;100095.16;;;1.08;49.16
6506;BME280;3286;49.858;8.768;2023-03-01T04:10:28;100100.88;;;1.16;49.39
6506;BME280;3286;49.858;8.768;2023-03-01T04:12:56;100099.13;;;1.17;49.98
6506;BME280;3286;49.858;8.768;2023-03-01T04:15:23;100109.19;;;0.84;50.26
6506;BME280;3286;49.858;8.768;2023-03-01T04:17:52;100103.13;;;1.05;50.54
6506;BME280;3286;49.858;8.768;2023-03-01T04:20:20;100106.53;;;1.26;49.53
6506;BME280;3286;49.858;8.768;2023-03-01T04:22:51;100104.56;;;1.50;48.87
6506;BME280;3286;49.858;8.768;2023-03-01T04:25:20;100100.03;;;1.15;49.16
6506;BME280;3286;49.858;8.768;2023-03-01T04:27:46;100100.72;;;1.59;48.70
6506;BME280;3286;49.858;8.768;2023-03-01T04:30:13;100095.00;;;1.89;47.50
6506;BME280;3286;49.858;8.768;2023-03-01T04:32:40;100100.00;;;1.74;48.40
6506;BME280;3286;49.858;8.768;2023-03-01T04:35:07;100098.13;;;1.19;49.19
6506;BME280;3286;49.858;8.768;2023-03-01T04:37:34;100099.00;;;1.20;49.07
6506;BME280;3286;49.858;8.768;2023-03-01T04:40:02;100101.00;;;0.73;50.51
6506;BME280;3286;49.858;8.768;2023-03-01T04:42:39;100093.47;;;1.07;50.01
6506;BME280;3286;49.858;8.768;2023-03-01T04:45:06;100090.47;;;1.16;49.72
6506;BME280;3286;49.858;8.768;2023-03-01T04:47:38;100096.44;;;1.18;49.81
6506;BME280;3286;49.858;8.768;2023-03-01T04:50:06;100091.09;;;1.02;50.65
6506;BME280;3286;49.858;8.768;2023-03-01T04:52:33;100096.59;;;1.34;50.25
6506;BME280;3286;49.858;8.768;2023-03-01T04:54:59;100100.66;;;1.01;50.82
6506;BME280;3286;49.858;8.768;2023-03-01T04:57:26;100100.03;;;1.15;50.21
6506;BME280;3286;49.858;8.768;2023-03-01T04:59:54;100092.91;;;1.00;50.48
6506;BME280;3286;49.858;8.768;2023-03-01T05:02:22;100099.19;;;1.15;50.13
6506;BME280;3286;49.858;8.768;2023-03-01T05:04:48;100100.41;;;0.87;50.58
6506;BME280;3286;49.858;8.768;2023-03-01T05:07:15;100097.25;;;1.58;49.43
6506;BME280;3286;49.858;8.768;2023-03-01T05:09:45;100098.69;;;1.07;49.86
6506;BME280;3286;49.858;8.768;2023-03-01T05:12:12;100094.50;;;1.23;49.48
6506;BME280;3286;49.858;8.768;2023-03-01T05:14:38;100097.22;;;1.20;49.63
6506;BME280;3286;49.858;8.768;2023-03-01T05:17:07;100088.88;;;1.33;49.63
6506;BME280;3286;49.858;8.768;2023-03-01T05:19:34;100087.22;;;1.11;50.08
6506;BME280;3286;49.858;8.768;2023-03-01T05:22:01;100087.94;;;1.14;50.26
6506;BME280;3286;49.858;8.768;2023-03-01T05:24:30;100093.25;;;0.92;51.02
6506;BME280;3286;49.858;8.768;2023-03-01T05:26:57;100088.88;;;1.13;50.57
6506;BME280;3286;49.858;8.768;2023-03-01T05:29:25;100083.28;;;1.02;50.99
6506;BME280;3286;49.858;8.768;2023-03-01T05:31:52;100080.09;;;0.95;51.15
6506;BME280;3286;49.858;8.768;2023-03-01T05:34:23;100076.22;;;1.44;50.17
6506;BME280;3286;49.858;8.768;2023-03-01T05:36:50;100075.00;;;1.70;49.11
6506;BME280;3286;49.858;8.768;2023-03-01T05:39:19;100078.22;;;1.18;50.25
6506;BME280;3286;49.858;8.768;2023-03-01T05:41:46;100079.31;;;1.52;49.24
6506;BME280;3286;49.858;8.768;2023-03-01T05:44:13;100080.34;;;1.10;50.23
6506;BME280;3286;49.858;8.768;2023-03-01T05:46:40;100073.03;;;1.37;50.31
6506;BME280;3286;49.858;8.768;2023-03-01T05:49:06;100077.19;;;0.82;50.93
6506;BME280;3286;49.858;8.768;2023-03-01T05:51:34;100067.16;;;1.34;49.57
6506;BME280;3286;49.858;8.768;2023-03-01T05:54:01;100071.06;;;1.04;50.67
6506;BME280;3286;49.858;8.768;2023-03-01T05:56:27;100072.94;;;1.00;50.87
6506;BME280;3286;49.858;8.768;2023-03-01T05:58:54;100082.97;;;0.89;50.78
6506;BME280;3286;49.858;8.768;2023-03-01T06:01:21;100072.69;;;1.26;50.08
6506;BME280;3286;49.858;8.768;2023-03-01T06:03:47;100067.94;;;0.96;50.96
6506;BME280;3286;49.858;8.768;2023-03-01T06:06:14;100076.53;;;1.17;50.23
6506;BME280;3286;49.858;8.768;2023-03-01T06:08:42;100080.94;;;1.55;49.69
6506;BME280;3286;49.858;8.768;2023-03-01T06:11:09;100064.66;;;1.88;49.05
6506;BME280;3286;49.858;8.768;2023-03-01T06:13:36;100075.22;;;1.27;51.06
6506;BME280;3286;49.858;8.768;2023-03-01T06:16:04;100074.16;;;1.12;52.52
6506;BME280;3286;49.858;8.768;2023-03-01T06:18:31;100073.91;;;1.38;53.40
6506;BME280;3286;49.858;8.768;2023-03-01T06:20:57;100070.28;;;1.21;53.95
6506;BME280;3286;49.858;8.768;2023-03-01T06:23:25;100070.63;;;0.94;53.06
6506;BME280;3286;49.858;8.768;2023-03-01T06:25:53;100066.53;;;1.08;51.34
6506;BME280;3286;49.858;8.768;2023-03-01T06:28:20;100058.47;;;1.33;50.46
6506;BME280;3286;49.858;8.768;2023-03-01T06:30:46;100064.06;;;1.44;50.52
6506;BME280;3286;49.858;8.768;2023-03-01T06:33:14;100066.00;;;1.39;51.29
6506;BME280;3286;49.858;8.768;2023-03-01T06:35:40;100063.00;;;1.29;52.17
6506;BME280;3286;49.858;8.768;2023-03-01T06:38:07;100064.81;;;2.02;49.60
6506;BME280;3286;49.858;8.768;2023-03-01T06:40:34;100065.84;;;1.62;50.06
6506;BME280;3286;49.858;8.768;2023-03-01T06:43:02;100061.97;;;1.70;50.22
6506;BME280;3286;49.858;8.768;2023-03-01T06:45:29;100064.13;;;1.80;48.82
6506;BME280;3286;49.858;8.768;2023-03-01T06:48:03;100079.16;;;1.36;50.87
6506;BME280;3286;49.858;8.768;2023-03-01T06:50:30;100066.34;;;2.24;48.74
6506;BME280;3286;49.858;8.768;2023-03-01T06:52:57;100063.91;;;2.03;49.61
6506;BME280;3286;49.858;8.768;2023-03-01T06:55:24;100067.81;;;2.12;49.69
6506;BME280;3286;49.858;8.768;2023-03-01T06:57:54;100061.22;;;2.40;48.66
6506;BME280;3286;49.858;8.768;2023-03-01T07:00:24;100052.81;;;2.53;47.54
6506;BME280;3286;49.858;8.768;2023-03-01T07:02:51;100058.31;;;2.64;47.38
6506;BME280;3286;49.858;8.768;2023-03-01T07:05:17;100058.72;;;3.24;45.55
6506;BME280;3286;49.858;8.768;2023-03-01T07:07:44;100054.16;;;2.78;46.42
6506;BME280;3286;49.858;8.768;2023-03-01T07:10:11;100065.81;;;2.88;46.95
6506;BME280;3286;49.858;8.768;2023-03-01T07:12:38;100059.47;;;3.26;45.59
6506;BME280;3286;49.858;8.768;2023-03-01T07:15:08;100057.50;;;2.97;45.72
6506;BME280;3286;49.858;8.768;2023-03-01T07:17:37;100052.47;;;3.10;45.78
6506;BME280;3286;49.858;8.768;2023-03-01T07:20:04;100049.34;;;3.03;45.42
6506;BME280;3286;49.858;8.768;2023-03-01T07:22:31;100051.31;;;3.48;44.87
6506;BME280;3286;49.858;8.768;2023-03-01T07:24:58;100049.97;;;3.41;45.10
6506;BME280;3286;49.858;8.768;2023-03-01T07:27:24;100046.63;;;3.71;44.11
6506;BME280;3286;49.858;8.768;2023-03-01T07:29:51;100044.28;;;3.97;44.32
6506;BME280;3286;49.858;8.768;2023-03-01T07:32:17;100046.44;;;3.90;43.99
6506;BME280;3286;49.858;8.768;2023-03-01T07:34:45;100037.94;;;3.54;44.90
6506;BME280;3286;49.858;8.768;2023-03-01T07:37:12;100044.50;;;3.29;45.58
6506;BME280;3286;49.858;8.768;2023-03-01T07:39:39;100045.31;;;3.14;45.34
6506;BME280;3286;49.858;8.768;2023-03-01T07:42:06;100041.63;;;3.66;44.82
6506;BME280;3286;49.858;8.768;2023-03-01T07:44:33;100029.59;;;4.10;43.84
6506;BME280;3286;49.858;8.768;2023-03-01T07:47:00;100031.31;;;3.95;44.57
6506;BME280;3286;49.858;8.768;2023-03-01T07:49:27;100030.09;;;3.70;43.89
6506;BME280;3286;49.858;8.768;2023-03-01T07:51:55;100022.44;;;4.28;43.04
6506;BME280;3286;49.858;8.768;2023-03-01T07:54:21;100018.72;;;4.02;42.92
6506;BME280;3286;49.858;8.768;2023-03-01T07:56:48;100023.53;;;4.55;42.81
6506;BME280;3286;49.858;8.768;2023-03-01T07:59:15;100013.09;;;4.24;43.52
6506;BME280;3286;49.858;8.768;2023-03-01T08:01:41;100016.97;;;4.02;42.91
6506;BME280;3286;49.858;8.768;2023-03-01T08:04:08;100011.59;;;4.20;43.66
6506;BME280;3286;49.858;8.768;2023-03-01T08:06:35;100019.69;;;4.46;42.41
6506;BME280;3286;49.858;8.768;2023-03-01T08:09:04;100017.47;;;4.54;42.29
6506;BME280;3286;49.858;8.768;2023-03-01T08:11:30;100013.72;;;4.58;41.87
6506;BME280;3286;49.858;8.768;2023-03-01T08:13:57;100024.38;;;4.10;42.32
6506;BME280;3286;49.858;8.768;2023-03-01T08:16:23;100012.16;;;4.99;41.20
6506;BME280;3286;49.858;8.768;2023-03-01T08:18:50;100018.06;;;4.74;42.25
6506;BME280;3286;49.858;8.768;2023-03-01T08:21:18;100026.03;;;4.42;42.92
6506;BME280;3286;49.858;8.768;2023-03-01T08:23:45;100007.72;;;4.42;41.68
6506;BME280;3286;49.858;8.768;2023-03-01T08:26:14;100014.66;;;3.66;43.56
6506;BME280;3286;49.858;8.768;2023-03-01T08:28:42;100007.75;;;4.11;43.40
6506;BME280;3286;49.858;8.768;2023-03-01T08:31:18;99999.56;;;4.32;42.80
6506;BME280;3286;49.858;8.768;2023-03-01T08:33:45;100004.84;;;4.16;42.54
6506;BME280;3286;49.858;8.768;2023-03-01T08:36:16;99990.19;;;4.73;41.24
6506;BME280;3286;49.858;8.768;2023-03-01T08:38:42;99995.47;;;4.42;42.39
6506;BME280;3286;49.858;8.768;2023-03-01T08:41:09;99993.28;;;4.94;41.88
6506;BME280;3286;49.858;8.768;2023-03-01T08:43:37;99996.81;;;4.78;41.07
6506;BME280;3286;49.858;8.768;2023-03-01T08:46:04;99998.63;;;4.33;42.19
6506;BME280;3286;49.858;8.768;2023-03-01T08:48:30;99998.69;;;4.76;41.01
6506;BME280;3286;49.858;8.768;2023-03-01T08:51:07;99993.38;;;4.78;41.19
6506;BME280;3286;49.858;8.768;2023-03-01T08:53:33;99990.19;;;4.87;40.96
6506;BME280;3286;49.858;8.768;2023-03-01T08:56:00;99990.09;;;4.15;42.99
6506;BME280;3286;49.858;8.768;2023-03-01T08:58:27;99980.97;;;3.91;42.11
6506;BME280;3286;49.858;8.768;2023-03-01T09:00:55;99983.31;;;4.27;42.66
6506;BME280;3286;49.858;8.768;2023-03-01T09:03:23;99981.94;;;4.35;42.40
6506;BME280;3286;49.858;8.768;2023-03-01T09:05:50;99983.59;;;3.91;42.79
6506;BME280;3286;49.858;8.768;2023-03-01T09:08:16;99975.91;;;4.19;42.19
6506;BME280;3286;49.858;8.768;2023-03-01T09:10:43;99974.84;;;4.52;41.19
6506;BME280;3286;49.858;8.768;2023-03-01T09:13:10;99969.72;;;4.65;42.10
6506;BME280;3286;49.858;8.768;2023-03-01T09:15:37;99975.97;;;4.77;40.72
6506;BME280;3286;49.858;8.768;2023-03-01T09:18:05;99962.69;;;4.80;40.87
6506;BME280;3286;49.858;8.768;2023-03-01T09:20:32;99964.00;;;5.44;40.33
6506;BME280;3286;49.858;8.768;2023-03-01T09:22:59;99960.41;;;5.17;40.06
6506;BME280;3286;49.858;8.768;2023-03-01T09:25:25;99955.47;;;4.40;41.01
6506;BME280;3286;49.858;8.768;2023-03-01T09:27:52;99949.34;;;5.54;39.75
6506;BME280;3286;49.858;8.768;2023-03-01T09:30:20;99942.69;;;5.63;39.50
6506;BME280;3286;49.858;8.768;2023-03-01T09:32:47;99944.19;;;5.80;39.54
6506;BME280;3286;49.858;8.768;2023-03-01T09:35:15;99937.38;;;5.90;39.26
6506;BME280;3286;49.858;8.768;2023-03-01T09:37:41;99940.19;;;6.28;37.99
6506;BME280;3286;49.858;8.768;2023-03-01T09:40:13;99932.94;;;6.05;37.24
6506;BME280;3286;49.858;8.768;2023-03-01T09:42:48;99941.94;;;5.33;38.88
6506;BME280;3286;49.858;8.768;2023-03-01T09:45:26;99933.06;;;6.30;38.05
6506;BME280;3286;49.858;8.768;2023-03-01T09:47:54;99924.56;;;6.13;38.06
6506;BME280;3286;49.858;8.768;2023-03-01T09:50:26;99926.94;;;5.63;38.01
6506;BME280;3286;49.858;8.768;2023-03-01T09:53:00;99929.47;;;6.05;37.63
6506;BME280;3286;49.858;8.768;2023-03-01T09:55:31;99932.13;;;5.77;37.97
6506;BME280;3286;49.858;8.768;2023-03-01T09:58:04;99923.00;;;5.01;39.04
6506;BME280;3286;49.858;8.768;2023-03-01T10:00:38;99923.94;;;6.22;38.00
6506;BME280;3286;49.858;8.768;2023-03-01T10:03:13;99920.03;;;6.54;36.55
6506;BME280;3286;49.858;8.768;2023-03-01T10:05:57;99921.06;;;6.51;36.79
6506;BME280;3286;49.858;8.768;2023-03-01T10:08:33;99925.91;;;6.32;37.57
6506;BME280;3286;49.858;8.768;2023-03-01T10:11:05;99919.72;;;5.39;38.61
6506;BME280;3286;49.858;8.768;2023-03-01T10:13:37;99917.56;;;5.46;39.00
6506;BME280;3286;49.858;8.768;2023-03-01T10:16:14;99920.44;;;6.22;37.44
6506;BME280;3286;49.858;8.768;2023-03-01T10:18:43;99923.06;;;6.61;36.71
6506;BME280;3286;49.858;8.768;2023-03-01T10:21:15;99909.31;;;6.31;37.31
6506;BME280;3286;49.858;8.768;2023-03-01T10:23:43;99904.50;;;6.51;36.15
6506;BME280;3286;49.858;8.768;2023-03-01T10:26:24;99907.47;;;6.33;36.91
6506;BME280;3286;49.858;8.768;2023-03-01T10:29:00;99903.03;;;5.68;38.02
6506;BME280;3286;49.858;8.768;2023-03-01T10:31:36;99902.81;;;6.37;37.16
6506;BME280;3286;49.858;8.768;2023-03-01T10:34:09;99893.63;;;7.06;35.25
6506;BME280;3286;49.858;8.768;2023-03-01T10:36:39;99888.09;;;6.98;36.15
6506;BME280;3286;49.858;8.768;2023-03-01T10:39:13;99891.75;;;7.08;35.96
6506;BME280;3286;49.858;8.768;2023-03-01T10:41:53;99899.53;;;6.59;35.84
6506;BME280;3286;49.858;8.768;2023-03-01T10:44:42;99898.75;;;6.96;35.37
6506;BME280;3286;49.858;8.768;2023-03-01T10:47:16;99893.41;;;7.09;36.24
6506;BME280;3286;49.858;8.768;2023-03-01T10:49:54;99882.78;;;7.59;34.62
6506;BME280;3286;49.858;8.768;2023-03-01T10:52:25;99871.56;;;8.38;33.20
6506;BME280;3286;49.858;8.768;2023-03-01T10:54:54;99870.47;;;8.41;32.63
6506;BME280;3286;49.858;8.768;2023-03-01T10:57:32;99867.31;;;7.90;34.08
6506;BME280;3286;49.858;8.768;2023-03-01T11:00:15;99868.44;;;7.63;34.54
6506;BME280;3286;49.858;8.768;2023-03-01T11:02:43;99868.50;;;7.15;35.39
6506;BME280;3286;49.858;8.768;2023-03-01T11:05:19;99862.78;;;7.92;33.82
6506;BME280;3286;49.858;8.768;2023-03-01T11:07:51;99867.13;;;7.33;33.92
6506;BME280;3286;49.858;8.768;2023-03-01T11:10:23;99854.81;;;8.05;32.96
6506;BME280;3286;49.858;8.768;2023-03-01T11:12:50;99845.56;;;7.88;33.97
6506;BME280;3286;49.858;8.768;2023-03-01T11:15:24;99842.56;;;7.81;33.83
6506;BME280;3286;49.858;8.768;2023-03-01T11:17:51;99835.44;;;7.59;33.53
6506;BME280;3286;49.858;8.768;2023-03-01T11:20:26;99837.72;;;6.79;34.94
6506;BME280;3286;49.858;8.768;2023-03-01T11:22:58;99833.59;;;7.95;33.75
6506;BME280;3286;49.858;8.768;2023-03-01T11:25:29;99836.00;;;7.87;32.82
6506;BME280;3286;49.858;8.768;2023-03-01T11:27:58;99824.38;;;7.90;33.32
6506;BME280;3286;49.858;8.768;2023-03-01T11:30:29;99818.41;;;7.76;33.53
6506;BME280;3286;49.858;8.768;2023-03-01T11:33:10;99816.66;;;7.52;34.73
6506;BME280;3286;49.858;8.768;2023-03-01T11:35:42;99824.91;;;7.48;33.23
6506;BME280;3286;49.858;8.768;2023-03-01T11:38:18;99813.72;;;7.68;34.00
6506;BME280;3286;49.858;8.768;2023-03-01T11:40:49;99815.78;;;8.22;33.24
6506;BME280;3286;49.858;8.768;2023-03-01T11:43:22;99819.19;;;7.54;33.45
6506;BME280;3286;49.858;8.768;2023-03-01T11:48:54;99811.44;;;7.64;33.89
6506;BME280;3286;49.858;8.768;2023-03-01T11:51:30;99798.72;;;8.16;33.92
6506;BME280;3286;49.858;8.768;2023-03-01T11:54:13;99796.66;;;7.97;33.05
6506;BME280;3286;49.858;8.768;2023-03-01T11:56:46;99795.94;;;8.52;32.84
6506;BME280;3286;49.858;8.768;2023-03-01T11:59:23;99796.66;;;8.43;31.53
6506;BME280;3286;49.858;8.768;2023-03-01T12:02:10;99785.44;;;8.06;32.68
6506;BME280;3286;49.858;8.768;2023-03-01T12:05:11;99792.56;;;7.93;32.09
6506;BME280;3286;49.858;8.768;2023-03-01T12:07:46;99786.25;;;8.07;31.65
6506;BME280;3286;49.858;8.768;2023-03-01T12:10:23;99780.63;;;8.90;30.41
6506;BME280;3286;49.858;8.768;2023-03-01T12:13:13;99777.13;;;9.85;29.76
6506;BME280;3286;49.858;8.768;2023-03-01T12:18:58;99763.69;;;8.71;30.14
6506;BME280;3286;49.858;8.768;2023-03-01T12:21:34;99745.66;;;8.55;30.72
6506;BME280;3286;49.858;8.768;2023-03-01T12:24:28;99739.41;;;9.21;30.92
6506;BME280;3286;49.858;8.768;2023-03-01T12:27:24;99740.69;;;8.73;30.53
6506;BME280;3286;49.858;8.768;2023-03-01T12:30:00;99723.88;;;9.18;29.27
6506;BME280;3286;49.858;8.768;2023-03-01T12:32:41;99722.09;;;8.86;29.87
6506;BME280;3286;49.858;8.768;2023-03-01T12:35:23;99711.56;;;9.28;29.72
6506;BME280;3286;49.858;8.768;2023-03-01T12:37:58;99713.56;;;9.15;30.87
6506;BME280;3286;49.858;8.768;2023-03-01T12:40:43;99708.03;;;9.39;30.33
6506;BME280;3286;49.858;8.768;2023-03-01T12:43:28;99709.09;;;9.99;28.72
6506;BME280;3286;49.858;8.768;2023-03-01T12:46:10;99692.03;;;10.54;28.69
6506;BME280;3286;49.858;8.768;2023-03-01T12:48:49;99703.75;;;9.48;29.29
6506;BME280;3286;49.858;8.768;2023-03-01T12:51:22;99702.47;;;9.64;29.35
6506;BME280;3286;49.858;8.768;2023-03-01T12:53:51;99690.63;;;9.89;28.55
6506;BME280;3286;49.858;8.768;2023-03-01T12:56:19;99686.44;;;9.86;28.03
6506;BME280;3286;49.858;8.768;2023-03-01T12:58:56;99680.91;;;9.06;29.85
6506;BME280;3286;49.858;8.768;2023-03-01T13:01:33;99673.03;;;9.68;28.60
6506;BME280;3286;49.858;8.768;2023-03-01T13:04:07;99673.88;;;10.20;29.40
6506;BME280;3286;49.858;8.768;2023-03-01T13:06:42;99657.13;;;10.70;28.75
6506;BME280;3286;49.858;8.768;2023-03-01T13:09:17;99662.13;;;10.63;28.14
6506;BME280;3286;49.858;8.768;2023-03-01T13:11:46;99669.91;;;10.45;28.56
6506;BME280;3286;49.858;8.768;2023-03-01T13:14:45;99664.97;;;10.21;29.50
6506;BME280;3286;49.858;8.768;2023-03-01T13:17:40;99658.25;;;9.97;29.31
6506;BME280;3286;49.858;8.768;2023-03-01T13:20:13;99660.84;;;10.38;28.70
6506;BME280;3286;49.858;8.768;2023-03-01T13:22:41;99655.84;;;9.74;29.15
6506;BME280;3286;49.858;8.768;2023-03-01T13:25:16;99653.41;;;9.92;29.10
6506;BME280;3286;49.858;8.768;2023-03-01T13:27:43;99650.22;;;9.98;28.59
6506;BME280;3286;49.858;8.768;2023-03-01T13:30:41;99649.78;;;9.52;29.68
6506;BME280;3286;49.858;8.768;2023-03-01T13:33:41;99636.41;;;9.75;28.98
6506;BME280;3286;49.858;8.768;2023-03-01T13:36:09;99637.13;;;9.97;29.05
6506;BME280;3286;49.858;8.768;2023-03-01T13:38:46;99631.06;;;10.26;29.33
6506;BME280;3286;49.858;8.768;2023-03-01T13:41:13;99629.97;;;10.38;28.60
6506;BME280;3286;49.858;8.768;2023-03-01T13:43:41;99635.66;;;10.14;28.92
6506;BME280;3286;49.858;8.768;2023-03-01T13:46:12;99632.88;;;9.55;29.83
6506;BME280;3286;49.858;8.768;2023-03-01T13:48:43;99627.69;;;9.84;28.48